Terminal Aerodrome Forecast
Issued by NWS Chicago, IL

Home | Current Version | Previous Version | Graphics & Text | Print | Product List | Glossary On
Versions: 1 2 3 4 5 6 7 8 9 10 11 12 13 14 15 16 17 18 19 20 21 22 23 24 25 26 27 28 29 30
000
FTUS43 KLOT 190525
TAFRFD
TAF
KRFD 190525Z 1906/2006 18012KT P6SM VCSH SCT020 BKN040
     FM190900 19008KT 5SM BR VCSH BKN007 OVC012
      TEMPO 1910/1913 3/4SM BR BKN003 OVC007
     FM191300 15006KT 1/2SM -SHRA FG OVC003
      TEMPO 1913/1917 1/4SM -DZ FG OVC002
     FM192200 20014G21KT 1SM -RA BR OVC004 WS020/22050KT
     FM200200 19012G18KT 1 1/2SM -SHRA BR OVC006 WS020/22050KT=

USA.gov is the U.S. government's official web portal to all federal, state and local government web resources and services.